createdAt,value
2023-01-08T00:02:25.626Z,9.41
2023-01-08T00:07:29.348Z,8.12
2023-01-08T00:12:33.669Z,9.48
2023-01-08T00:17:37.350Z,9.69
2023-01-08T00:22:41.202Z,10.06
2023-01-08T00:27:46.554Z,10.25
2023-01-08T00:32:50.272Z,10.96
2023-01-08T00:37:55.102Z,10.55
2023-01-08T00:42:58.745Z,8.29
2023-01-08T00:48:02.909Z,8.70
2023-01-08T00:53:06.732Z,10.11
2023-01-08T00:58:12.375Z,10.61
2023-01-08T01:03:16.064Z,10.66
2023-01-08T01:08:19.664Z,8.47
2023-01-08T01:13:24.459Z,8.58
2023-01-08T01:18:29.157Z,9.59
2023-01-08T01:23:33.032Z,10.10
2023-01-08T01:28:36.621Z,9.64
2023-01-08T01:33:42.056Z,9.74
2023-01-08T01:38:49.185Z,9.64
2023-01-08T01:44:01.088Z,9.06
2023-01-08T01:49:16.017Z,9.14
2023-01-08T01:54:21.316Z,9.20
2023-01-08T01:59:25.425Z,9.54
2023-01-08T02:04:29.073Z,9.06
2023-01-08T02:10:06.384Z,9.63
2023-01-08T02:15:20.328Z,9.86
2023-01-08T02:20:41.969Z,9.59
2023-01-08T02:26:46.016Z,9.32
2023-01-08T02:31:50.120Z,9.19
2023-01-08T02:36:57.323Z,9.52
2023-01-08T02:42:16.516Z,10.11
2023-01-08T02:47:39.807Z,9.72
2023-01-08T02:53:15.468Z,9.68
2023-01-08T02:58:23.640Z,8.94
2023-01-08T03:03:31.136Z,8.17
2023-01-08T03:08:41.063Z,8.54
2023-01-08T03:14:32.840Z,9.38
2023-01-08T03:19:56.921Z,9.39
2023-01-08T03:25:04.468Z,9.18
2023-01-08T03:30:11.916Z,8.50
2023-01-08T03:35:23.345Z,8.85
2023-01-08T03:40:37.112Z,8.40
2023-01-08T03:46:00.040Z,8.60
2023-01-08T03:51:04.122Z,8.38
2023-01-08T04:02:20.080Z,8.64
2023-01-08T04:07:24.212Z,7.92
2023-01-08T04:12:27.968Z,7.62
2023-01-08T04:17:31.647Z,7.52
2023-01-08T04:22:36.004Z,7.51
2023-01-08T04:27:39.711Z,7.89
2023-01-08T04:32:43.335Z,8.49
2023-01-08T04:37:47.046Z,8.44
2023-01-08T04:42:50.779Z,7.71
2023-01-08T04:47:59.993Z,7.75
2023-01-08T04:53:04.194Z,7.57
2023-01-08T04:58:08.708Z,7.52
2023-01-08T05:03:13.104Z,7.42
2023-01-08T05:08:16.862Z,7.79
2023-01-08T05:13:20.534Z,7.37
2023-01-08T05:18:24.100Z,7.98
2023-01-08T05:23:28.245Z,7.82
2023-01-08T05:28:33.627Z,7.50
2023-01-08T05:33:37.637Z,7.38
2023-01-08T05:38:41.964Z,7.74
2023-01-08T05:43:45.835Z,7.33
2023-01-08T05:48:49.726Z,7.22
2023-01-08T05:53:53.766Z,7.35
2023-01-08T05:58:57.669Z,7.67
2023-01-08T06:04:01.419Z,7.76
2023-01-08T06:09:05.120Z,7.57
2023-01-08T06:14:08.740Z,7.19
2023-01-08T06:19:13.182Z,6.97
2023-01-08T06:24:16.939Z,6.66
2023-01-08T06:29:21.259Z,6.97
2023-01-08T06:34:25.169Z,7.33
2023-01-08T06:39:29.313Z,7.26
2023-01-08T06:44:33.226Z,6.80
2023-01-08T06:49:37.061Z,6.87
2023-01-08T06:54:41.309Z,6.41
2023-01-08T06:59:45.539Z,6.50
2023-01-08T07:04:49.464Z,6.32
2023-01-08T07:09:53.371Z,6.13
2023-01-08T07:14:57.613Z,5.91
2023-01-08T07:20:01.201Z,5.83
2023-01-08T07:25:05.704Z,5.93
2023-01-08T07:30:28.349Z,5.93
2023-01-08T07:35:35.870Z,6.82
2023-01-08T07:40:39.674Z,7.30
2023-01-08T07:45:46.306Z,7.12
2023-01-08T07:50:52.379Z,6.41
2023-01-08T07:56:08.706Z,6.95
2023-01-08T08:01:13.152Z,7.37
2023-01-08T08:06:16.941Z,7.70
2023-01-08T08:11:21.783Z,7.50
2023-01-08T08:16:26.289Z,7.24
2023-01-08T08:21:32.150Z,7.11
2023-01-08T08:26:37.658Z,6.68
2023-01-08T08:31:41.977Z,6.71
2023-01-08T08:36:47.276Z,6.89
2023-01-08T08:41:51.119Z,6.17
2023-01-08T08:46:55.641Z,5.86
2023-01-08T08:52:00.587Z,5.70
2023-01-08T08:57:04.502Z,5.77
2023-01-08T09:02:08.507Z,5.76
2023-01-08T09:07:12.799Z,5.86
2023-01-08T09:12:16.672Z,6.09
2023-01-08T09:17:21.929Z,6.05
2023-01-08T09:22:26.241Z,5.83
2023-01-08T09:27:30.320Z,5.96
2023-01-08T09:32:34.549Z,5.78
2023-01-08T09:37:38.997Z,5.69
2023-01-08T09:42:43.310Z,5.87
2023-01-08T09:47:47.358Z,5.94
2023-01-08T09:52:52.001Z,5.80
2023-01-08T09:57:56.537Z,5.93
2023-01-08T10:03:01.032Z,5.99
2023-01-08T10:08:06.266Z,5.72
2023-01-08T10:13:13.668Z,5.52
2023-01-08T10:18:23.992Z,5.70
2023-01-08T10:23:27.957Z,5.65
2023-01-08T10:28:38.741Z,6.40
2023-01-08T10:33:49.340Z,6.82
2023-01-08T10:39:00.629Z,6.50
2023-01-08T10:44:15.625Z,6.27
2023-01-08T10:49:42.404Z,6.49
2023-01-08T10:54:46.050Z,6.50
2023-01-08T10:59:50.140Z,6.60
2023-01-08T11:04:54.258Z,7.02
2023-01-08T11:09:59.162Z,6.87
2023-01-08T11:15:07.613Z,6.63
2023-01-08T11:20:31.177Z,6.29
2023-01-08T11:25:36.825Z,6.37
2023-01-08T11:30:45.537Z,6.34
2023-01-08T11:36:25.840Z,6.48
2023-01-08T11:42:25.668Z,6.43
2023-01-08T11:47:51.274Z,6.54
2023-01-08T11:53:25.529Z,6.76
2023-01-08T11:58:48.258Z,6.58
2023-01-08T12:04:28.482Z,7.31
2023-01-08T12:10:15.831Z,7.79
2023-01-08T12:15:58.833Z,7.53
2023-01-08T12:21:47.597Z,8.23
2023-01-08T12:26:55.108Z,7.79
2023-01-08T12:32:36.511Z,7.43
2023-01-08T12:37:52.105Z,7.01
2023-01-08T12:43:01.449Z,7.37
2023-01-08T12:48:20.920Z,7.16
2023-01-08T12:53:49.944Z,7.26
2023-01-08T12:59:22.576Z,7.04
2023-01-08T13:04:27.543Z,6.64
2023-01-08T13:09:33.594Z,6.85
2023-01-08T13:14:58.037Z,7.20
2023-01-08T13:20:07.812Z,6.86
2023-01-08T13:25:29.741Z,7.14
2023-01-08T13:30:43.367Z,6.63
2023-01-08T13:35:51.071Z,6.41
2023-01-08T13:40:57.078Z,6.29
2023-01-08T13:46:00.718Z,6.36
2023-01-08T13:51:05.607Z,6.32
2023-01-08T13:56:11.229Z,6.37
2023-01-08T14:01:16.984Z,6.41
2023-01-08T14:06:28.321Z,6.41
2023-01-08T14:11:48.283Z,6.25
2023-01-08T14:16:53.983Z,6.40
2023-01-08T14:22:04.325Z,6.45
2023-01-08T14:27:40.607Z,6.09
2023-01-08T14:33:00.969Z,6.26
2023-01-08T14:38:13.040Z,6.68
2023-01-08T14:43:21.510Z,6.61
2023-01-08T14:48:42.043Z,6.25
2023-01-08T14:54:02.986Z,6.40
2023-01-08T14:59:12.340Z,6.27
2023-01-08T15:04:21.376Z,6.38
2023-01-08T15:09:33.229Z,6.46
2023-01-08T15:14:37.665Z,6.19
2023-01-08T15:19:56.585Z,6.29
2023-01-08T15:25:09.095Z,6.30
2023-01-08T15:30:45.356Z,5.97
2023-01-08T15:35:51.260Z,6.86
2023-01-08T15:40:56.544Z,7.14
2023-01-08T15:46:00.893Z,7.17
2023-01-08T15:51:07.489Z,7.07
2023-01-08T15:56:11.602Z,8.24
2023-01-08T16:01:16.653Z,7.96
2023-01-08T16:06:20.870Z,7.48
2023-01-08T16:11:25.045Z,7.82
2023-01-08T16:16:29.345Z,7.77
2023-01-08T16:21:33.699Z,8.15
2023-01-08T16:26:37.710Z,8.38
2023-01-08T16:31:47.331Z,8.42
2023-01-08T16:36:51.607Z,8.07
2023-01-08T16:41:55.649Z,7.94
2023-01-08T16:47:01.884Z,7.15
2023-01-08T16:52:07.032Z,6.82
2023-01-08T16:57:13.395Z,6.44
2023-01-08T17:02:17.581Z,6.60
2023-01-08T17:07:21.502Z,6.53
2023-01-08T17:12:26.793Z,7.11
2023-01-08T17:17:31.080Z,7.07
2023-01-08T17:22:35.568Z,7.12
2023-01-08T17:27:39.308Z,7.02
2023-01-08T17:32:44.820Z,6.58
2023-01-08T17:37:48.657Z,6.34
2023-01-08T17:42:52.625Z,6.65
2023-01-08T17:47:57.437Z,6.61
2023-01-08T17:53:03.769Z,6.96
2023-01-08T17:58:07.658Z,7.11
2023-01-08T18:03:11.678Z,6.75
2023-01-08T18:08:16.410Z,7.31
2023-01-08T18:13:20.798Z,7.59
2023-01-08T18:18:25.437Z,7.37
2023-01-08T18:23:30.945Z,7.11
2023-01-08T18:28:35.685Z,6.70
2023-01-08T18:33:42.153Z,7.39
2023-01-08T18:38:46.718Z,7.17
2023-01-08T18:43:50.666Z,7.09
2023-01-08T18:48:55.390Z,7.26
2023-01-08T18:53:59.500Z,7.09
2023-01-08T18:59:06.614Z,6.58
2023-01-08T19:04:19.972Z,6.97
2023-01-08T19:09:24.713Z,6.69
2023-01-08T19:14:28.705Z,6.65
2023-01-08T19:19:32.729Z,7.18
2023-01-08T19:24:38.203Z,7.40
2023-01-08T19:29:43.172Z,7.29
2023-01-08T19:34:48.703Z,7.47
2023-01-08T19:40:03.217Z,7.50
2023-01-08T19:45:12.025Z,7.46
2023-01-08T19:50:20.719Z,6.95
2023-01-08T19:55:27.229Z,6.81
2023-01-08T20:00:37.945Z,6.78
2023-01-08T20:05:44.085Z,7.62
2023-01-08T20:10:50.427Z,7.35
2023-01-08T20:15:59.041Z,8.03
2023-01-08T20:21:17.335Z,7.67
2023-01-08T20:26:42.952Z,8.31
2023-01-08T20:32:00.533Z,8.06
2023-01-08T20:37:08.848Z,8.10
2023-01-08T20:42:32.687Z,8.38
2023-01-08T20:47:41.390Z,8.22
2023-01-08T20:52:49.672Z,8.26
2023-01-08T20:57:55.375Z,7.50
2023-01-08T21:03:01.858Z,7.93
2023-01-08T21:08:10.281Z,7.67
2023-01-08T21:13:18.499Z,7.64
2023-01-08T21:18:28.229Z,7.42
2023-01-08T21:23:37.422Z,7.66
2023-01-08T21:28:46.226Z,8.01
2023-01-08T21:33:54.915Z,7.36
2023-01-08T21:39:01.963Z,7.62
2023-01-08T21:44:35.060Z,7.74
2023-01-08T21:49:39.863Z,7.53
2023-01-08T21:54:44.065Z,8.15
2023-01-08T21:59:52.888Z,8.39
2023-01-08T22:04:57.635Z,8.24
2023-01-08T22:10:03.287Z,8.08
2023-01-08T22:15:10.134Z,7.44
2023-01-08T22:20:14.867Z,7.95
2023-01-08T22:25:18.736Z,8.56
2023-01-08T22:30:23.872Z,8.57
2023-01-08T22:35:28.696Z,8.37
2023-01-08T22:40:32.714Z,8.19
2023-01-08T22:45:37.028Z,8.02
2023-01-08T22:50:40.983Z,8.28
2023-01-08T22:55:47.902Z,8.57
2023-01-08T23:00:54.429Z,8.42
2023-01-08T23:06:08.233Z,8.78
2023-01-08T23:11:18.301Z,8.50
2023-01-08T23:16:25.636Z,8.29
2023-01-08T23:21:30.567Z,8.28
2023-01-08T23:26:34.442Z,7.51
2023-01-08T23:31:39.011Z,7.43
2023-01-08T23:36:44.721Z,6.94
2023-01-08T23:41:50.263Z,7.64
2023-01-08T23:46:59.469Z,8.13
2023-01-08T23:52:08.025Z,8.04
2023-01-08T23:57:19.726Z,7.95
